Fowlkes, Tennessee
Current Conditions -  °F | °C
As of 1:35 AM on Thursday 23 Oct 2014 (Local Time) from KDYR Reporting Station
Clear Clear  
Wind Chill: 46°   Ceiling: Unl
Heat Index: 46°   Visibility: 10mi
Dew Point: 34°   Wind: 3mph
Humidity: 62%   Direction: 50°NE
Pressure: 30.22"   Gusts: NA
Location:  35.97°N, 89.39°W
Report Text: KDYR 230635Z 05003KT 10SM CLR 08/01 A3022 RMK AO1
Loading
Personal Weather Stations






























Interactive Weather Map
Tropical Storm Tracking
New forecast layout! Learn more

10-Day Weather Forecast

Advertisements
Track Severe Weather on mobile